createdAt,value
2023-05-02T00:03:37.233Z,31.20
2023-05-02T00:07:40.083Z,31.13
2023-05-02T00:11:42.816Z,34.53
2023-05-02T00:15:45.986Z,36.87
2023-05-02T00:19:50.036Z,35.37
2023-05-02T00:23:52.850Z,32.43
2023-05-02T00:27:56.164Z,33.17
2023-05-02T00:31:58.884Z,30.23
2023-05-02T00:36:02.902Z,29.23
2023-05-02T00:40:06.464Z,27.40
2023-05-02T00:44:09.369Z,27.77
2023-05-02T00:48:12.650Z,26.17
2023-05-02T00:52:17.030Z,27.20
2023-05-02T00:56:19.702Z,25.70
2023-05-02T01:00:28.413Z,24.93
2023-05-02T01:04:40.677Z,24.60
2023-05-02T01:08:50.758Z,23.60
2023-05-02T01:13:00.938Z,21.00
2023-05-02T01:17:06.253Z,20.77
2023-05-02T01:21:11.235Z,22.20
2023-05-02T01:25:30.965Z,21.40
2023-05-02T01:29:38.245Z,20.30
2023-05-02T01:33:41.625Z,20.73
2023-05-02T01:37:46.529Z,18.03
2023-05-02T01:41:53.293Z,20.53
2023-05-02T01:45:59.075Z,19.73
2023-05-02T01:50:04.308Z,17.30
2023-05-02T01:54:09.519Z,19.77
2023-05-02T01:58:13.106Z,19.47
2023-05-02T02:02:18.698Z,18.73
2023-05-02T02:06:22.728Z,17.87
2023-05-02T02:10:30.643Z,16.83
2023-05-02T02:14:36.148Z,17.53
2023-05-02T02:18:40.592Z,17.43
2023-05-02T02:22:45.286Z,17.83
2023-05-02T02:26:48.030Z,16.23
2023-05-02T02:30:51.200Z,17.27
2023-05-02T02:34:55.426Z,14.07
2023-05-02T02:39:11.523Z,15.07
2023-05-02T02:43:20.350Z,13.33
2023-05-02T02:47:28.382Z,10.17
2023-05-02T02:51:39.405Z,6.87
2023-05-02T02:55:48.827Z,7.13
2023-05-02T03:00:01.122Z,6.03
2023-05-02T03:04:06.876Z,6.50
2023-05-02T03:08:11.076Z,6.23
2023-05-02T03:12:14.190Z,6.23
2023-05-02T03:16:37.402Z,6.00
2023-05-02T03:20:42.922Z,5.77
2023-05-02T03:24:47.459Z,5.63
2023-05-02T03:28:51.418Z,5.30
2023-05-02T03:33:00.421Z,4.87
2023-05-02T03:37:03.202Z,4.43
2023-05-02T03:41:08.633Z,4.93
2023-05-02T03:45:12.070Z,4.20
2023-05-02T03:49:14.839Z,4.77
2023-05-02T03:53:20.396Z,4.50
2023-05-02T03:57:32.267Z,5.03
2023-05-02T04:01:35.616Z,4.63
2023-05-02T04:05:38.732Z,4.13
2023-05-02T04:09:41.963Z,4.73
2023-05-02T04:13:48.387Z,4.67
2023-05-02T04:17:51.101Z,5.13
2023-05-02T04:21:54.895Z,4.57
2023-05-02T04:25:57.773Z,4.93
2023-05-02T04:30:14.636Z,4.80
2023-05-02T04:34:21.818Z,5.10
2023-05-02T04:38:25.215Z,4.60
2023-05-02T04:42:28.174Z,4.70
2023-05-02T04:46:49.100Z,5.23
2023-05-02T04:50:53.522Z,5.20
2023-05-02T04:54:57.123Z,4.70
2023-05-02T04:59:00.816Z,4.30
2023-05-02T05:03:06.398Z,4.40
2023-05-02T05:07:09.580Z,4.63
2023-05-02T05:11:12.519Z,5.10
2023-05-02T05:15:15.702Z,6.60
2023-05-02T05:19:23.831Z,7.07
2023-05-02T05:23:27.259Z,6.47
2023-05-02T05:27:30.474Z,6.67
2023-05-02T05:31:33.676Z,6.23
2023-05-02T05:35:38.703Z,6.87
2023-05-02T05:39:41.526Z,7.47
2023-05-02T05:43:45.154Z,8.07
2023-05-02T05:47:48.553Z,7.33
2023-05-02T05:51:52.923Z,7.50
2023-05-02T05:55:55.663Z,7.27
2023-05-02T05:59:58.872Z,7.70
2023-05-02T06:04:02.958Z,8.63
2023-05-02T06:08:07.390Z,8.20
2023-05-02T06:12:10.126Z,8.70
2023-05-02T06:16:14.323Z,8.07
2023-05-02T06:20:18.710Z,7.27
2023-05-02T06:24:23.054Z,6.03
2023-05-02T06:28:25.698Z,5.20
2023-05-02T06:32:31.484Z,6.20
2023-05-02T06:36:34.235Z,5.53
2023-05-02T06:40:45.116Z,5.93
2023-05-02T06:44:47.761Z,5.07
2023-05-02T06:48:50.682Z,5.30
2023-05-02T06:52:53.536Z,6.00
2023-05-02T06:56:57.584Z,5.00
2023-05-02T07:01:00.281Z,5.37
2023-05-02T07:05:03.117Z,5.20
2023-05-02T07:09:10.802Z,4.63
2023-05-02T07:13:14.869Z,4.70
2023-05-02T07:17:17.704Z,5.43
2023-05-02T07:21:20.447Z,4.10
2023-05-02T07:25:23.087Z,4.53
2023-05-02T07:29:27.197Z,3.20
2023-05-02T07:33:30.238Z,3.27
2023-05-02T07:37:35.204Z,3.30
2023-05-02T07:41:37.923Z,3.50
2023-05-02T07:45:41.998Z,3.50
2023-05-02T07:49:44.840Z,3.40
2023-05-02T07:53:47.686Z,3.10
2023-05-02T07:57:50.418Z,2.80
2023-05-02T08:01:54.451Z,3.20
2023-05-02T08:05:57.227Z,2.60
2023-05-02T08:10:00.171Z,3.07
2023-05-02T08:14:03.347Z,3.03
2023-05-02T08:18:07.437Z,3.67
2023-05-02T08:22:10.306Z,3.23
2023-05-02T08:26:12.989Z,2.93
2023-05-02T08:30:15.797Z,3.03
2023-05-02T08:34:19.763Z,3.30
2023-05-02T08:38:22.481Z,3.10
2023-05-02T08:42:25.823Z,3.30
2023-05-02T08:46:29.961Z,2.80
2023-05-02T08:50:36.756Z,2.80
2023-05-02T08:54:39.890Z,2.87
2023-05-02T08:58:42.885Z,3.63
2023-05-02T09:02:59.079Z,3.93
2023-05-02T09:07:03.921Z,3.40
2023-05-02T09:11:07.924Z,3.50
2023-05-02T09:15:12.326Z,3.10
2023-05-02T09:19:25.984Z,3.60
2023-05-02T09:23:38.397Z,3.10
2023-05-02T09:27:52.054Z,3.20
2023-05-02T09:31:56.652Z,3.63
2023-05-02T09:35:59.495Z,3.60
2023-05-02T09:40:11.073Z,3.63
2023-05-02T09:44:15.556Z,3.57
2023-05-02T09:48:18.232Z,3.87
2023-05-02T09:52:22.490Z,3.47
2023-05-02T09:56:26.766Z,4.10
2023-05-02T10:00:43.484Z,4.30
2023-05-02T10:04:48.161Z,3.37
2023-05-02T10:08:51.045Z,4.03
2023-05-02T10:12:56.189Z,4.07
2023-05-02T10:17:02.761Z,4.30
2023-05-02T10:21:10.087Z,4.20
2023-05-02T10:25:13.490Z,4.00
2023-05-02T10:29:17.745Z,3.70
2023-05-02T10:33:22.201Z,4.30
2023-05-02T10:37:26.547Z,4.27
2023-05-02T10:41:33.041Z,4.67
2023-05-02T10:45:38.601Z,4.07
2023-05-02T10:49:50.954Z,4.47
2023-05-02T10:53:53.796Z,4.27
2023-05-02T10:58:21.960Z,4.37
2023-05-02T11:02:50.180Z,4.40
2023-05-02T11:07:18.159Z,4.40
2023-05-02T11:11:41.367Z,3.97
2023-05-02T11:15:57.739Z,4.27
2023-05-02T11:20:26.932Z,4.27
2023-05-02T11:24:39.828Z,4.50
2023-05-02T11:28:47.882Z,4.20
2023-05-02T12:38:10.313Z,3.97
2023-05-02T12:42:13.953Z,4.87
2023-05-02T12:46:17.240Z,4.40
2023-05-02T12:50:19.951Z,4.37
2023-05-02T12:54:24.394Z,4.83
2023-05-02T12:58:28.512Z,4.57
2023-05-02T13:02:31.945Z,4.30
2023-05-02T13:06:37.647Z,4.37
2023-05-02T13:10:41.879Z,4.47
2023-05-02T13:14:45.103Z,3.83
2023-05-02T13:18:48.065Z,3.80
2023-05-02T13:22:51.086Z,4.20
2023-05-02T13:26:55.621Z,3.70
2023-05-02T13:30:58.286Z,4.33
2023-05-02T13:35:01.313Z,3.93
2023-05-02T13:39:04.390Z,4.07
2023-05-02T13:43:08.512Z,3.83
2023-05-02T13:47:11.190Z,3.80
2023-05-02T13:51:13.891Z,3.93
2023-05-02T13:55:16.997Z,3.97
2023-05-02T13:59:21.000Z,3.90
2023-05-02T14:03:23.704Z,4.23
2023-05-02T14:07:26.442Z,3.70
2023-05-02T14:11:29.089Z,3.30
2023-05-02T14:15:33.161Z,4.57
2023-05-02T14:19:35.892Z,3.00
2023-05-02T14:23:38.587Z,3.30
2023-05-02T14:27:41.915Z,2.93
2023-05-02T14:31:46.563Z,3.60
2023-05-02T14:35:49.823Z,3.33
2023-05-02T14:39:56.061Z,3.03
2023-05-02T14:43:58.930Z,3.00
2023-05-02T14:48:03.018Z,3.13
2023-05-02T14:52:05.850Z,3.03
2023-05-02T14:56:13.447Z,2.67
2023-05-02T15:00:17.385Z,2.80
2023-05-02T15:04:21.477Z,2.73
2023-05-02T15:08:25.129Z,2.80
2023-05-02T15:12:27.812Z,2.50
2023-05-02T15:16:30.842Z,3.37
2023-05-02T15:20:34.861Z,2.73
2023-05-02T15:24:37.707Z,2.60
2023-05-02T15:28:40.640Z,2.43
2023-05-02T15:32:43.269Z,3.00
2023-05-02T15:36:47.270Z,3.03
2023-05-02T15:40:57.015Z,2.67
2023-05-02T15:44:59.982Z,2.77
2023-05-02T15:49:02.657Z,2.80
2023-05-02T15:53:06.741Z,2.57
2023-05-02T15:57:10.197Z,2.70
2023-05-02T16:01:12.956Z,2.67
2023-05-02T16:05:15.688Z,2.43
2023-05-02T16:09:20.907Z,2.50
2023-05-02T16:13:23.544Z,2.57
2023-05-02T16:17:26.365Z,2.50
2023-05-02T16:21:29.348Z,2.50
2023-05-02T16:25:33.378Z,2.67
2023-05-02T16:29:36.098Z,2.63
2023-05-02T16:33:39.023Z,2.53
2023-05-02T16:37:42.905Z,2.63
2023-05-02T16:41:47.080Z,2.80
2023-05-02T16:45:49.697Z,2.67
2023-05-02T16:49:55.589Z,2.63
2023-05-02T16:53:58.289Z,2.80
2023-05-02T16:58:02.234Z,2.70
2023-05-02T17:02:04.927Z,2.73
2023-05-02T17:06:08.162Z,2.83
2023-05-02T17:10:12.333Z,2.87
2023-05-02T17:14:16.389Z,2.40
2023-05-02T17:18:19.198Z,2.30
2023-05-02T17:22:21.911Z,2.60
2023-05-02T17:26:24.852Z,2.53
2023-05-02T17:30:29.029Z,2.90
2023-05-02T17:34:33.380Z,2.97
2023-05-02T17:38:36.088Z,2.53
2023-05-02T17:42:45.409Z,2.93
2023-05-02T17:46:49.769Z,2.80
2023-05-02T17:50:53.323Z,2.50
2023-05-02T17:54:56.040Z,2.70
2023-05-02T17:58:59.607Z,2.40
2023-05-02T18:03:03.753Z,2.37
2023-05-02T18:07:06.571Z,2.60
2023-05-02T18:11:14.825Z,3.10
2023-05-02T18:15:17.625Z,2.30
2023-05-02T18:19:22.901Z,2.87
2023-05-02T18:23:25.585Z,3.00
2023-05-02T18:27:28.482Z,2.50
2023-05-02T18:31:31.971Z,2.43
2023-05-02T18:35:36.453Z,2.17
2023-05-02T18:39:39.191Z,2.43
2023-05-02T18:43:41.834Z,2.80
2023-05-02T18:47:44.534Z,2.17
2023-05-02T18:51:48.591Z,2.03
2023-05-02T18:55:51.457Z,2.13
2023-05-02T18:59:54.151Z,2.07
2023-05-02T19:03:57.374Z,1.87
2023-05-02T19:08:01.505Z,2.13
2023-05-02T19:12:04.221Z,2.47
2023-05-02T19:16:11.374Z,2.20
2023-05-02T19:20:14.121Z,2.10
2023-05-02T19:24:18.448Z,2.23
2023-05-02T19:28:21.650Z,2.47
2023-05-02T19:32:25.132Z,2.30
2023-05-02T19:36:28.376Z,2.10
2023-05-02T19:40:32.448Z,2.03
2023-05-02T19:44:35.135Z,2.30
2023-05-02T19:48:37.916Z,2.17
2023-05-02T19:52:41.600Z,1.97
2023-05-02T19:56:48.646Z,2.43
2023-05-02T20:00:51.761Z,2.70
2023-05-02T20:04:54.854Z,2.30
2023-05-02T20:08:57.525Z,2.80
2023-05-02T20:13:01.535Z,2.30
2023-05-02T20:17:04.623Z,2.40
2023-05-02T20:21:07.389Z,2.50
2023-05-02T20:25:11.492Z,2.70
2023-05-02T20:29:15.557Z,2.57
2023-05-02T20:33:19.708Z,2.50
2023-05-02T20:37:22.990Z,2.73
2023-05-02T20:41:26.716Z,2.37
2023-05-02T20:45:30.687Z,3.47
2023-05-02T20:49:33.974Z,3.50
2023-05-02T20:53:36.837Z,2.60
2023-05-02T20:57:41.277Z,2.70
2023-05-02T21:01:45.296Z,3.10
2023-05-02T21:05:53.746Z,3.03
2023-05-02T21:09:56.389Z,2.93
2023-05-02T21:14:00.063Z,2.60
2023-05-02T21:18:04.862Z,2.90
2023-05-02T21:22:07.621Z,3.80
2023-05-02T21:26:10.451Z,3.70
2023-05-02T21:30:14.216Z,3.07
2023-05-02T21:34:18.813Z,3.43
2023-05-02T21:38:21.606Z,2.87
2023-05-02T21:42:24.382Z,3.00
2023-05-02T21:46:27.170Z,3.03
2023-05-02T21:50:31.285Z,3.30
2023-05-02T21:54:34.470Z,3.20
2023-05-02T21:58:37.248Z,2.50
2023-05-02T22:02:39.933Z,2.80
2023-05-02T22:06:44.112Z,2.93
2023-05-02T22:10:46.848Z,2.90
2023-05-02T22:14:49.981Z,3.07
2023-05-02T22:18:52.658Z,3.13
2023-05-02T22:22:56.695Z,3.07
2023-05-02T22:26:59.383Z,2.60
2023-05-02T22:31:01.988Z,2.60
2023-05-02T22:35:04.859Z,2.53
2023-05-02T22:39:12.835Z,2.87
2023-05-02T22:43:15.836Z,2.97
2023-05-02T22:47:18.701Z,3.00
2023-05-02T22:51:21.371Z,2.90
2023-05-02T22:55:25.774Z,2.70
2023-05-02T22:59:29.580Z,2.87
2023-05-02T23:03:32.431Z,3.40
2023-05-02T23:07:35.172Z,3.13
2023-05-02T23:11:39.160Z,3.30
2023-05-02T23:15:42.044Z,3.50
2023-05-02T23:19:44.738Z,3.50
2023-05-02T23:23:47.338Z,3.30
2023-05-02T23:27:51.713Z,2.90
2023-05-02T23:31:55.432Z,3.03
2023-05-02T23:35:58.678Z,3.07
2023-05-02T23:40:02.655Z,3.70
2023-05-02T23:44:07.009Z,3.77
2023-05-02T23:48:09.783Z,3.77
2023-05-02T23:52:12.470Z,3.67
2023-05-02T23:56:15.276Z,4.00
